sensor_id;sensor_type;location;lat;lon;timestamp;P1;durP1;ratioP1;P2;durP2;ratioP2
25922;SDS011;13725;51.170;4.442;2023-10-31T00:02:13;35.80;;;14.77;;
25922;SDS011;13725;51.170;4.442;2023-10-31T00:04:39;33.95;;;13.73;;
25922;SDS011;13725;51.170;4.442;2023-10-31T00:07:05;36.03;;;14.18;;
25922;SDS011;13725;51.170;4.442;2023-10-31T00:09:30;34.58;;;14.15;;
25922;SDS011;13725;51.170;4.442;2023-10-31T00:11:57;33.40;;;13.07;;
25922;SDS011;13725;51.170;4.442;2023-10-31T00:14:23;29.40;;;13.73;;
25922;SDS011;13725;51.170;4.442;2023-10-31T00:16:49;36.58;;;13.63;;
25922;SDS011;13725;51.170;4.442;2023-10-31T00:19:15;36.50;;;14.23;;
25922;SDS011;13725;51.170;4.442;2023-10-31T00:21:40;31.35;;;14.18;;
25922;SDS011;13725;51.170;4.442;2023-10-31T00:24:06;34.95;;;15.75;;
25922;SDS011;13725;51.170;4.442;2023-10-31T00:26:32;47.17;;;14.75;;
25922;SDS011;13725;51.170;4.442;2023-10-31T00:28:58;34.53;;;14.65;;
25922;SDS011;13725;51.170;4.442;2023-10-31T00:31:24;43.13;;;14.65;;
25922;SDS011;13725;51.170;4.442;2023-10-31T00:33:49;38.58;;;14.30;;
25922;SDS011;13725;51.170;4.442;2023-10-31T00:36:15;39.30;;;15.10;;
25922;SDS011;13725;51.170;4.442;2023-10-31T00:38:41;43.33;;;15.52;;
25922;SDS011;13725;51.170;4.442;2023-10-31T00:41:07;43.10;;;16.48;;
25922;SDS011;13725;51.170;4.442;2023-10-31T00:43:33;38.72;;;16.23;;
25922;SDS011;13725;51.170;4.442;2023-10-31T00:45:58;39.53;;;15.73;;
25922;SDS011;13725;51.170;4.442;2023-10-31T00:48:24;42.10;;;17.42;;
25922;SDS011;13725;51.170;4.442;2023-10-31T00:50:50;47.55;;;18.27;;
25922;SDS011;13725;51.170;4.442;2023-10-31T00:53:16;45.25;;;17.50;;
25922;SDS011;13725;51.170;4.442;2023-10-31T00:55:41;44.67;;;17.58;;
25922;SDS011;13725;51.170;4.442;2023-10-31T00:58:07;44.03;;;18.15;;
25922;SDS011;13725;51.170;4.442;2023-10-31T01:00:33;47.20;;;19.52;;
25922;SDS011;13725;51.170;4.442;2023-10-31T01:02:59;58.72;;;19.58;;
25922;SDS011;13725;51.170;4.442;2023-10-31T01:05:25;49.55;;;19.63;;
25922;SDS011;13725;51.170;4.442;2023-10-31T01:07:53;50.00;;;20.33;;
25922;SDS011;13725;51.170;4.442;2023-10-31T01:10:19;43.13;;;19.33;;
25922;SDS011;13725;51.170;4.442;2023-10-31T01:12:46;56.47;;;20.63;;
25922;SDS011;13725;51.170;4.442;2023-10-31T01:15:11;46.40;;;18.90;;
25922;SDS011;13725;51.170;4.442;2023-10-31T01:17:37;50.20;;;20.88;;
25922;SDS011;13725;51.170;4.442;2023-10-31T01:20:03;49.78;;;21.67;;
25922;SDS011;13725;51.170;4.442;2023-10-31T01:22:29;51.95;;;20.20;;
25922;SDS011;13725;51.170;4.442;2023-10-31T01:24:54;52.55;;;19.92;;
25922;SDS011;13725;51.170;4.442;2023-10-31T01:27:20;47.63;;;19.17;;
25922;SDS011;13725;51.170;4.442;2023-10-31T01:29:46;46.28;;;19.90;;
25922;SDS011;13725;51.170;4.442;2023-10-31T01:32:11;47.70;;;19.25;;
25922;SDS011;13725;51.170;4.442;2023-10-31T01:34:37;46.83;;;20.15;;
25922;SDS011;13725;51.170;4.442;2023-10-31T01:37:03;47.20;;;19.25;;
25922;SDS011;13725;51.170;4.442;2023-10-31T01:39:29;41.63;;;19.42;;
25922;SDS011;13725;51.170;4.442;2023-10-31T01:41:55;38.17;;;18.70;;
25922;SDS011;13725;51.170;4.442;2023-10-31T01:44:21;44.13;;;19.10;;
25922;SDS011;13725;51.170;4.442;2023-10-31T01:46:46;49.13;;;18.40;;
25922;SDS011;13725;51.170;4.442;2023-10-31T01:49:12;40.00;;;17.92;;
25922;SDS011;13725;51.170;4.442;2023-10-31T01:51:40;34.80;;;15.90;;
25922;SDS011;13725;51.170;4.442;2023-10-31T01:54:08;38.25;;;14.40;;
25922;SDS011;13725;51.170;4.442;2023-10-31T01:56:34;33.10;;;14.95;;
25922;SDS011;13725;51.170;4.442;2023-10-31T01:59:00;32.30;;;14.27;;
25922;SDS011;13725;51.170;4.442;2023-10-31T02:01:26;32.78;;;13.77;;
25922;SDS011;13725;51.170;4.442;2023-10-31T02:03:53;26.80;;;12.82;;
25922;SDS011;13725;51.170;4.442;2023-10-31T02:06:19;26.85;;;11.98;;
25922;SDS011;13725;51.170;4.442;2023-10-31T02:08:47;26.33;;;12.20;;
25922;SDS011;13725;51.170;4.442;2023-10-31T02:11:13;28.77;;;11.73;;
25922;SDS011;13725;51.170;4.442;2023-10-31T02:13:39;30.20;;;12.18;;
25922;SDS011;13725;51.170;4.442;2023-10-31T02:16:05;28.33;;;12.43;;
25922;SDS011;13725;51.170;4.442;2023-10-31T02:18:33;30.25;;;12.52;;
25922;SDS011;13725;51.170;4.442;2023-10-31T02:20:59;26.23;;;12.30;;
25922;SDS011;13725;51.170;4.442;2023-10-31T02:23:25;27.38;;;12.50;;
25922;SDS011;13725;51.170;4.442;2023-10-31T02:25:51;25.30;;;12.75;;
25922;SDS011;13725;51.170;4.442;2023-10-31T02:28:17;31.40;;;13.35;;
25922;SDS011;13725;51.170;4.442;2023-10-31T02:30:43;33.55;;;13.48;;
25922;SDS011;13725;51.170;4.442;2023-10-31T02:33:09;23.83;;;11.93;;
25922;SDS011;13725;51.170;4.442;2023-10-31T02:35:35;27.70;;;13.25;;
25922;SDS011;13725;51.170;4.442;2023-10-31T02:38:01;32.03;;;13.88;;
25922;SDS011;13725;51.170;4.442;2023-10-31T02:40:26;30.20;;;13.48;;
25922;SDS011;13725;51.170;4.442;2023-10-31T02:42:52;27.95;;;13.43;;
25922;SDS011;13725;51.170;4.442;2023-10-31T02:45:18;26.25;;;13.57;;
25922;SDS011;13725;51.170;4.442;2023-10-31T02:47:44;33.42;;;13.00;;
25922;SDS011;13725;51.170;4.442;2023-10-31T02:50:10;30.88;;;13.35;;
25922;SDS011;13725;51.170;4.442;2023-10-31T02:52:36;27.75;;;13.02;;
25922;SDS011;13725;51.170;4.442;2023-10-31T02:55:02;24.65;;;12.25;;
25922;SDS011;13725;51.170;4.442;2023-10-31T02:57:27;28.73;;;13.00;;
25922;SDS011;13725;51.170;4.442;2023-10-31T02:59:53;30.10;;;12.35;;
25922;SDS011;13725;51.170;4.442;2023-10-31T03:02:19;26.08;;;12.77;;
25922;SDS011;13725;51.170;4.442;2023-10-31T03:04:47;30.38;;;13.35;;
25922;SDS011;13725;51.170;4.442;2023-10-31T03:07:12;27.75;;;12.35;;
25922;SDS011;13725;51.170;4.442;2023-10-31T03:09:38;25.88;;;12.15;;
25922;SDS011;13725;51.170;4.442;2023-10-31T03:12:04;32.88;;;12.90;;
25922;SDS011;13725;51.170;4.442;2023-10-31T03:14:30;27.13;;;13.18;;
25922;SDS011;13725;51.170;4.442;2023-10-31T03:16:56;29.13;;;13.32;;
25922;SDS011;13725;51.170;4.442;2023-10-31T03:19:21;27.20;;;13.45;;
25922;SDS011;13725;51.170;4.442;2023-10-31T03:21:47;30.90;;;13.55;;
25922;SDS011;13725;51.170;4.442;2023-10-31T03:24:14;40.15;;;15.73;;
25922;SDS011;13725;51.170;4.442;2023-10-31T03:26:40;29.98;;;15.02;;
25922;SDS011;13725;51.170;4.442;2023-10-31T03:29:06;28.98;;;15.25;;
25922;SDS011;13725;51.170;4.442;2023-10-31T03:31:31;31.13;;;15.13;;
25922;SDS011;13725;51.170;4.442;2023-10-31T03:33:57;26.90;;;14.52;;
25922;SDS011;13725;51.170;4.442;2023-10-31T03:36:23;30.77;;;15.05;;
25922;SDS011;13725;51.170;4.442;2023-10-31T03:38:48;25.88;;;12.98;;
25922;SDS011;13725;51.170;4.442;2023-10-31T03:41:14;24.55;;;12.38;;
25922;SDS011;13725;51.170;4.442;2023-10-31T03:43:40;30.52;;;12.18;;
25922;SDS011;13725;51.170;4.442;2023-10-31T03:46:05;23.23;;;12.57;;
25922;SDS011;13725;51.170;4.442;2023-10-31T03:48:31;25.60;;;11.68;;
25922;SDS011;13725;51.170;4.442;2023-10-31T03:50:57;25.98;;;11.20;;
25922;SDS011;13725;51.170;4.442;2023-10-31T03:53:22;21.45;;;10.93;;
25922;SDS011;13725;51.170;4.442;2023-10-31T03:55:48;20.83;;;10.20;;
25922;SDS011;13725;51.170;4.442;2023-10-31T03:58:14;21.25;;;11.25;;
25922;SDS011;13725;51.170;4.442;2023-10-31T04:00:40;17.77;;;9.93;;
25922;SDS011;13725;51.170;4.442;2023-10-31T04:03:07;14.52;;;8.45;;
25922;SDS011;13725;51.170;4.442;2023-10-31T04:05:33;15.10;;;8.07;;
25922;SDS011;13725;51.170;4.442;2023-10-31T04:07:58;16.38;;;7.97;;
25922;SDS011;13725;51.170;4.442;2023-10-31T04:10:24;17.38;;;7.93;;
25922;SDS011;13725;51.170;4.442;2023-10-31T04:12:50;12.25;;;6.90;;
25922;SDS011;13725;51.170;4.442;2023-10-31T04:15:16;14.57;;;7.28;;
25922;SDS011;13725;51.170;4.442;2023-10-31T04:17:41;14.77;;;6.63;;
25922;SDS011;13725;51.170;4.442;2023-10-31T04:20:07;15.52;;;6.85;;
25922;SDS011;13725;51.170;4.442;2023-10-31T04:22:33;13.15;;;6.95;;
25922;SDS011;13725;51.170;4.442;2023-10-31T04:24:59;14.15;;;6.65;;
25922;SDS011;13725;51.170;4.442;2023-10-31T04:27:24;14.10;;;6.57;;
25922;SDS011;13725;51.170;4.442;2023-10-31T04:29:50;14.00;;;6.35;;
25922;SDS011;13725;51.170;4.442;2023-10-31T04:32:16;17.92;;;6.88;;
25922;SDS011;13725;51.170;4.442;2023-10-31T04:34:41;14.80;;;7.80;;
25922;SDS011;13725;51.170;4.442;2023-10-31T04:37:07;15.65;;;6.70;;
25922;SDS011;13725;51.170;4.442;2023-10-31T04:39:33;13.60;;;7.32;;
25922;SDS011;13725;51.170;4.442;2023-10-31T04:41:58;10.35;;;6.00;;
25922;SDS011;13725;51.170;4.442;2023-10-31T04:44:24;14.23;;;6.47;;
25922;SDS011;13725;51.170;4.442;2023-10-31T04:46:50;13.68;;;6.68;;
25922;SDS011;13725;51.170;4.442;2023-10-31T04:49:15;11.98;;;6.07;;
25922;SDS011;13725;51.170;4.442;2023-10-31T04:51:42;16.98;;;6.53;;
25922;SDS011;13725;51.170;4.442;2023-10-31T04:54:08;12.50;;;6.25;;
25922;SDS011;13725;51.170;4.442;2023-10-31T04:56:34;13.52;;;7.25;;
25922;SDS011;13725;51.170;4.442;2023-10-31T04:59:01;11.48;;;7.10;;
25922;SDS011;13725;51.170;4.442;2023-10-31T05:01:26;13.30;;;6.63;;
25922;SDS011;13725;51.170;4.442;2023-10-31T05:03:52;14.88;;;6.35;;
25922;SDS011;13725;51.170;4.442;2023-10-31T05:06:19;13.15;;;6.47;;
25922;SDS011;13725;51.170;4.442;2023-10-31T05:08:46;13.82;;;6.80;;
25922;SDS011;13725;51.170;4.442;2023-10-31T05:11:12;15.38;;;6.53;;
25922;SDS011;13725;51.170;4.442;2023-10-31T05:13:40;18.23;;;6.78;;
25922;SDS011;13725;51.170;4.442;2023-10-31T05:16:06;14.85;;;6.88;;
25922;SDS011;13725;51.170;4.442;2023-10-31T05:18:32;12.05;;;6.20;;
25922;SDS011;13725;51.170;4.442;2023-10-31T05:20:58;10.82;;;5.55;;
25922;SDS011;13725;51.170;4.442;2023-10-31T05:23:24;12.35;;;6.47;;
25922;SDS011;13725;51.170;4.442;2023-10-31T05:25:49;15.48;;;6.97;;
25922;SDS011;13725;51.170;4.442;2023-10-31T05:28:15;17.13;;;8.95;;
25922;SDS011;13725;51.170;4.442;2023-10-31T05:30:41;17.10;;;8.75;;
25922;SDS011;13725;51.170;4.442;2023-10-31T05:33:06;15.27;;;8.93;;
25922;SDS011;13725;51.170;4.442;2023-10-31T05:35:33;15.38;;;8.60;;
25922;SDS011;13725;51.170;4.442;2023-10-31T05:37:59;19.92;;;9.10;;
25922;SDS011;13725;51.170;4.442;2023-10-31T05:40:24;20.80;;;9.95;;
25922;SDS011;13725;51.170;4.442;2023-10-31T05:42:52;24.73;;;9.98;;
25922;SDS011;13725;51.170;4.442;2023-10-31T05:45:18;17.88;;;9.15;;
25922;SDS011;13725;51.170;4.442;2023-10-31T05:47:44;32.05;;;11.60;;
25922;SDS011;13725;51.170;4.442;2023-10-31T05:50:09;27.35;;;10.20;;
25922;SDS011;13725;51.170;4.442;2023-10-31T05:52:35;21.50;;;10.05;;
25922;SDS011;13725;51.170;4.442;2023-10-31T05:55:01;28.50;;;11.43;;
25922;SDS011;13725;51.170;4.442;2023-10-31T05:57:27;23.75;;;9.93;;
25922;SDS011;13725;51.170;4.442;2023-10-31T05:59:53;19.33;;;9.63;;
25922;SDS011;13725;51.170;4.442;2023-10-31T06:02:19;18.63;;;9.02;;
25922;SDS011;13725;51.170;4.442;2023-10-31T06:04:44;15.50;;;8.18;;
25922;SDS011;13725;51.170;4.442;2023-10-31T06:07:10;19.55;;;8.57;;
25922;SDS011;13725;51.170;4.442;2023-10-31T06:09:36;18.60;;;9.05;;
25922;SDS011;13725;51.170;4.442;2023-10-31T06:12:02;18.40;;;9.10;;
25922;SDS011;13725;51.170;4.442;2023-10-31T06:14:28;20.73;;;8.18;;
25922;SDS011;13725;51.170;4.442;2023-10-31T06:16:54;15.18;;;8.68;;
25922;SDS011;13725;51.170;4.442;2023-10-31T06:19:21;20.98;;;9.00;;
25922;SDS011;13725;51.170;4.442;2023-10-31T06:21:47;22.52;;;9.32;;
25922;SDS011;13725;51.170;4.442;2023-10-31T06:24:13;19.65;;;9.90;;
25922;SDS011;13725;51.170;4.442;2023-10-31T06:26:39;18.33;;;9.68;;
25922;SDS011;13725;51.170;4.442;2023-10-31T06:29:05;26.08;;;10.82;;
25922;SDS011;13725;51.170;4.442;2023-10-31T06:31:31;23.92;;;10.48;;
25922;SDS011;13725;51.170;4.442;2023-10-31T06:33:56;27.02;;;11.63;;
25922;SDS011;13725;51.170;4.442;2023-10-31T06:36:22;30.27;;;11.60;;
25922;SDS011;13725;51.170;4.442;2023-10-31T06:38:48;25.33;;;11.95;;
25922;SDS011;13725;51.170;4.442;2023-10-31T06:41:13;27.63;;;13.15;;
25922;SDS011;13725;51.170;4.442;2023-10-31T06:43:39;28.33;;;13.30;;
25922;SDS011;13725;51.170;4.442;2023-10-31T06:46:05;27.13;;;13.68;;
25922;SDS011;13725;51.170;4.442;2023-10-31T06:48:32;29.63;;;13.48;;
25922;SDS011;13725;51.170;4.442;2023-10-31T06:50:57;29.00;;;12.98;;
25922;SDS011;13725;51.170;4.442;2023-10-31T06:53:23;34.40;;;13.73;;
25922;SDS011;13725;51.170;4.442;2023-10-31T06:55:49;28.48;;;14.23;;
25922;SDS011;13725;51.170;4.442;2023-10-31T06:58:14;32.60;;;13.35;;
25922;SDS011;13725;51.170;4.442;2023-10-31T07:00:40;28.80;;;13.25;;
25922;SDS011;13725;51.170;4.442;2023-10-31T07:03:06;30.45;;;13.82;;
25922;SDS011;13725;51.170;4.442;2023-10-31T07:05:37;34.75;;;13.60;;
25922;SDS011;13725;51.170;4.442;2023-10-31T07:08:03;31.20;;;14.13;;
25922;SDS011;13725;51.170;4.442;2023-10-31T07:10:30;29.33;;;13.77;;
25922;SDS011;13725;51.170;4.442;2023-10-31T07:12:56;34.40;;;15.25;;
25922;SDS011;13725;51.170;4.442;2023-10-31T07:15:23;32.78;;;14.75;;
25922;SDS011;13725;51.170;4.442;2023-10-31T07:17:52;30.17;;;14.80;;
25922;SDS011;13725;51.170;4.442;2023-10-31T07:20:18;27.40;;;14.10;;
25922;SDS011;13725;51.170;4.442;2023-10-31T07:22:43;36.88;;;15.45;;
25922;SDS011;13725;51.170;4.442;2023-10-31T07:25:09;31.40;;;14.85;;
25922;SDS011;13725;51.170;4.442;2023-10-31T07:27:35;29.88;;;14.35;;
25922;SDS011;13725;51.170;4.442;2023-10-31T07:30:02;37.67;;;14.55;;
25922;SDS011;13725;51.170;4.442;2023-10-31T07:32:31;31.35;;;14.75;;
25922;SDS011;13725;51.170;4.442;2023-10-31T07:34:57;30.33;;;13.82;;
25922;SDS011;13725;51.170;4.442;2023-10-31T07:37:24;30.38;;;14.70;;
25922;SDS011;13725;51.170;4.442;2023-10-31T07:39:49;27.58;;;13.70;;
25922;SDS011;13725;51.170;4.442;2023-10-31T07:42:18;33.67;;;14.80;;
25922;SDS011;13725;51.170;4.442;2023-10-31T07:44:43;31.70;;;14.60;;
25922;SDS011;13725;51.170;4.442;2023-10-31T07:47:09;31.13;;;13.77;;
25922;SDS011;13725;51.170;4.442;2023-10-31T07:49:35;31.95;;;14.27;;
25922;SDS011;13725;51.170;4.442;2023-10-31T07:52:00;30.60;;;14.85;;
25922;SDS011;13725;51.170;4.442;2023-10-31T07:54:26;30.77;;;15.68;;
25922;SDS011;13725;51.170;4.442;2023-10-31T07:56:52;31.65;;;15.20;;
25922;SDS011;13725;51.170;4.442;2023-10-31T07:59:17;32.78;;;15.02;;
25922;SDS011;13725;51.170;4.442;2023-10-31T08:01:43;34.55;;;15.18;;
25922;SDS011;13725;51.170;4.442;2023-10-31T08:04:09;31.33;;;15.75;;
25922;SDS011;13725;51.170;4.442;2023-10-31T08:06:35;35.58;;;16.17;;
25922;SDS011;13725;51.170;4.442;2023-10-31T08:09:00;32.70;;;16.25;;
25922;SDS011;13725;51.170;4.442;2023-10-31T08:11:27;36.40;;;15.60;;
25922;SDS011;13725;51.170;4.442;2023-10-31T08:13:52;34.38;;;16.05;;
25922;SDS011;13725;51.170;4.442;2023-10-31T08:16:18;34.42;;;15.77;;
25922;SDS011;13725;51.170;4.442;2023-10-31T08:18:44;40.72;;;17.65;;
25922;SDS011;13725;51.170;4.442;2023-10-31T08:21:11;43.58;;;15.65;;
25922;SDS011;13725;51.170;4.442;2023-10-31T08:23:37;33.55;;;16.08;;
25922;SDS011;13725;51.170;4.442;2023-10-31T08:26:02;38.85;;;17.23;;
25922;SDS011;13725;51.170;4.442;2023-10-31T08:28:28;32.35;;;15.75;;
25922;SDS011;13725;51.170;4.442;2023-10-31T08:30:55;43.40;;;17.08;;
25922;SDS011;13725;51.170;4.442;2023-10-31T08:33:22;36.92;;;16.08;;
25922;SDS011;13725;51.170;4.442;2023-10-31T08:35:48;33.72;;;15.90;;
25922;SDS011;13725;51.170;4.442;2023-10-31T08:38:13;31.55;;;16.33;;
25922;SDS011;13725;51.170;4.442;2023-10-31T08:40:39;35.67;;;14.80;;
25922;SDS011;13725;51.170;4.442;2023-10-31T08:43:06;31.52;;;16.50;;
25922;SDS011;13725;51.170;4.442;2023-10-31T08:45:32;38.80;;;16.15;;
25922;SDS011;13725;51.170;4.442;2023-10-31T08:47:58;37.03;;;15.95;;
25922;SDS011;13725;51.170;4.442;2023-10-31T08:50:25;34.65;;;16.70;;
25922;SDS011;13725;51.170;4.442;2023-10-31T08:52:51;30.70;;;16.00;;
25922;SDS011;13725;51.170;4.442;2023-10-31T08:55:17;34.08;;;15.50;;
25922;SDS011;13725;51.170;4.442;2023-10-31T08:57:43;30.42;;;15.65;;
25922;SDS011;13725;51.170;4.442;2023-10-31T09:00:09;25.90;;;14.88;;
25922;SDS011;13725;51.170;4.442;2023-10-31T09:02:35;29.33;;;14.98;;
25922;SDS011;13725;51.170;4.442;2023-10-31T09:05:01;26.38;;;15.10;;
25922;SDS011;13725;51.170;4.442;2023-10-31T09:07:26;26.83;;;13.80;;
25922;SDS011;13725;51.170;4.442;2023-10-31T09:09:52;22.48;;;13.57;;
25922;SDS011;13725;51.170;4.442;2023-10-31T09:12:18;26.02;;;13.23;;
25922;SDS011;13725;51.170;4.442;2023-10-31T09:14:44;23.58;;;13.60;;
25922;SDS011;13725;51.170;4.442;2023-10-31T09:17:10;23.33;;;11.93;;
25922;SDS011;13725;51.170;4.442;2023-10-31T09:19:35;20.13;;;12.93;;
25922;SDS011;13725;51.170;4.442;2023-10-31T09:22:01;20.23;;;12.27;;
25922;SDS011;13725;51.170;4.442;2023-10-31T09:24:27;18.17;;;11.30;;
25922;SDS011;13725;51.170;4.442;2023-10-31T09:26:52;20.23;;;12.25;;
25922;SDS011;13725;51.170;4.442;2023-10-31T09:29:18;20.77;;;11.48;;
25922;SDS011;13725;51.170;4.442;2023-10-31T09:31:44;18.08;;;10.57;;
25922;SDS011;13725;51.170;4.442;2023-10-31T09:34:10;18.45;;;10.88;;
25922;SDS011;13725;51.170;4.442;2023-10-31T09:36:35;16.15;;;9.48;;
25922;SDS011;13725;51.170;4.442;2023-10-31T09:39:01;17.20;;;10.15;;
25922;SDS011;13725;51.170;4.442;2023-10-31T09:41:28;14.63;;;9.38;;
25922;SDS011;13725;51.170;4.442;2023-10-31T09:43:54;13.38;;;8.73;;
25922;SDS011;13725;51.170;4.442;2023-10-31T09:46:20;11.05;;;8.32;;
25922;SDS011;13725;51.170;4.442;2023-10-31T09:48:47;19.15;;;9.05;;
25922;SDS011;13725;51.170;4.442;2023-10-31T09:51:14;16.83;;;9.40;;
25922;SDS011;13725;51.170;4.442;2023-10-31T09:53:43;12.40;;;8.23;;
25922;SDS011;13725;51.170;4.442;2023-10-31T09:56:10;14.77;;;8.88;;
25922;SDS011;13725;51.170;4.442;2023-10-31T09:58:36;13.55;;;8.20;;
25922;SDS011;13725;51.170;4.442;2023-10-31T10:01:04;17.95;;;9.23;;
25922;SDS011;13725;51.170;4.442;2023-10-31T10:03:30;13.90;;;8.70;;
25922;SDS011;13725;51.170;4.442;2023-10-31T10:05:56;17.77;;;9.38;;
25922;SDS011;13725;51.170;4.442;2023-10-31T10:08:23;10.45;;;7.78;;
25922;SDS011;13725;51.170;4.442;2023-10-31T10:10:49;12.93;;;7.07;;
25922;SDS011;13725;51.170;4.442;2023-10-31T10:13:22;13.50;;;7.43;;
25922;SDS011;13725;51.170;4.442;2023-10-31T10:15:48;9.30;;;6.82;;
25922;SDS011;13725;51.170;4.442;2023-10-31T10:18:30;9.82;;;6.07;;
25922;SDS011;13725;51.170;4.442;2023-10-31T10:20:57;7.53;;;5.80;;
25922;SDS011;13725;51.170;4.442;2023-10-31T10:23:24;8.38;;;5.95;;
25922;SDS011;13725;51.170;4.442;2023-10-31T10:25:51;16.92;;;5.70;;
25922;SDS011;13725;51.170;4.442;2023-10-31T10:28:17;12.23;;;5.97;;
25922;SDS011;13725;51.170;4.442;2023-10-31T10:30:47;9.63;;;5.55;;
25922;SDS011;13725;51.170;4.442;2023-10-31T10:33:16;7.78;;;5.38;;
25922;SDS011;13725;51.170;4.442;2023-10-31T10:35:42;9.55;;;5.75;;
25922;SDS011;13725;51.170;4.442;2023-10-31T10:38:13;10.38;;;6.40;;
25922;SDS011;13725;51.170;4.442;2023-10-31T10:40:46;6.57;;;5.00;;
25922;SDS011;13725;51.170;4.442;2023-10-31T10:43:23;15.43;;;5.78;;
25922;SDS011;13725;51.170;4.442;2023-10-31T10:45:54;9.77;;;5.95;;
25922;SDS011;13725;51.170;4.442;2023-10-31T10:48:21;9.73;;;5.10;;
25922;SDS011;13725;51.170;4.442;2023-10-31T10:50:50;8.25;;;5.35;;
25922;SDS011;13725;51.170;4.442;2023-10-31T10:53:23;8.88;;;5.63;;
25922;SDS011;13725;51.170;4.442;2023-10-31T10:55:57;9.10;;;4.97;;
25922;SDS011;13725;51.170;4.442;2023-10-31T11:01:07;9.98;;;4.93;;
25922;SDS011;13725;51.170;4.442;2023-10-31T11:03:33;7.63;;;4.90;;
25922;SDS011;13725;51.170;4.442;2023-10-31T11:06:00;8.75;;;4.38;;
25922;SDS011;13725;51.170;4.442;2023-10-31T11:08:26;9.60;;;5.05;;
25922;SDS011;13725;51.170;4.442;2023-10-31T11:10:53;20.23;;;4.35;;
25922;SDS011;13725;51.170;4.442;2023-10-31T11:13:20;10.45;;;4.97;;
25922;SDS011;13725;51.170;4.442;2023-10-31T11:15:47;8.95;;;4.32;;
25922;SDS011;13725;51.170;4.442;2023-10-31T11:18:17;5.22;;;3.80;;
25922;SDS011;13725;51.170;4.442;2023-10-31T11:20:43;8.65;;;3.67;;
25922;SDS011;13725;51.170;4.442;2023-10-31T11:23:09;10.73;;;4.10;;
25922;SDS011;13725;51.170;4.442;2023-10-31T11:25:35;9.38;;;3.85;;
25922;SDS011;13725;51.170;4.442;2023-10-31T11:28:15;10.05;;;4.03;;
25922;SDS011;13725;51.170;4.442;2023-10-31T11:30:42;8.43;;;3.58;;
25922;SDS011;13725;51.170;4.442;2023-10-31T11:33:12;6.43;;;4.00;;
25922;SDS011;13725;51.170;4.442;2023-10-31T11:35:39;8.20;;;4.18;;
25922;SDS011;13725;51.170;4.442;2023-10-31T11:38:06;13.40;;;4.75;;
25922;SDS011;13725;51.170;4.442;2023-10-31T11:40:33;14.02;;;3.85;;
25922;SDS011;13725;51.170;4.442;2023-10-31T11:43:03;11.23;;;4.28;;
25922;SDS011;13725;51.170;4.442;2023-10-31T11:48:12;10.40;;;3.80;;
25922;SDS011;13725;51.170;4.442;2023-10-31T11:50:39;10.73;;;4.30;;
25922;SDS011;13725;51.170;4.442;2023-10-31T11:55:36;7.35;;;4.80;;
25922;SDS011;13725;51.170;4.442;2023-10-31T11:58:14;11.50;;;3.97;;
25922;SDS011;13725;51.170;4.442;2023-10-31T12:00:40;9.18;;;4.32;;
25922;SDS011;13725;51.170;4.442;2023-10-31T12:03:05;9.10;;;4.47;;
25922;SDS011;13725;51.170;4.442;2023-10-31T12:05:31;11.20;;;4.63;;
25922;SDS011;13725;51.170;4.442;2023-10-31T12:07:57;12.48;;;5.47;;
25922;SDS011;13725;51.170;4.442;2023-10-31T12:10:26;12.27;;;5.35;;
25922;SDS011;13725;51.170;4.442;2023-10-31T12:12:56;10.98;;;5.00;;
25922;SDS011;13725;51.170;4.442;2023-10-31T12:15:23;15.70;;;5.00;;
25922;SDS011;13725;51.170;4.442;2023-10-31T12:17:49;9.13;;;4.93;;
25922;SDS011;13725;51.170;4.442;2023-10-31T12:20:15;12.60;;;6.05;;
25922;SDS011;13725;51.170;4.442;2023-10-31T12:22:41;17.23;;;6.32;;
25922;SDS011;13725;51.170;4.442;2023-10-31T12:25:08;12.60;;;6.13;;
25922;SDS011;13725;51.170;4.442;2023-10-31T12:27:50;12.45;;;6.65;;
25922;SDS011;13725;51.170;4.442;2023-10-31T12:30:17;11.50;;;6.07;;
25922;SDS011;13725;51.170;4.442;2023-10-31T12:32:43;11.32;;;6.32;;
25922;SDS011;13725;51.170;4.442;2023-10-31T12:35:14;17.77;;;7.38;;
25922;SDS011;13725;51.170;4.442;2023-10-31T12:37:46;20.05;;;7.72;;
25922;SDS011;13725;51.170;4.442;2023-10-31T12:40:13;11.55;;;6.82;;
25922;SDS011;13725;51.170;4.442;2023-10-31T12:42:44;10.48;;;6.35;;
25922;SDS011;13725;51.170;4.442;2023-10-31T12:45:14;18.05;;;7.50;;
25922;SDS011;13725;51.170;4.442;2023-10-31T12:47:40;15.57;;;7.80;;
25922;SDS011;13725;51.170;4.442;2023-10-31T12:52:52;19.58;;;8.50;;
25922;SDS011;13725;51.170;4.442;2023-10-31T12:55:20;13.85;;;7.32;;
25922;SDS011;13725;51.170;4.442;2023-10-31T12:57:47;18.15;;;7.88;;
25922;SDS011;13725;51.170;4.442;2023-10-31T13:00:14;16.45;;;8.07;;
25922;SDS011;13725;51.170;4.442;2023-10-31T13:02:43;20.23;;;8.52;;
25922;SDS011;13725;51.170;4.442;2023-10-31T13:07:37;17.85;;;8.23;;
25922;SDS011;13725;51.170;4.442;2023-10-31T13:10:04;16.20;;;8.05;;
25922;SDS011;13725;51.170;4.442;2023-10-31T13:12:30;17.77;;;9.10;;
25922;SDS011;13725;51.170;4.442;2023-10-31T13:14:56;18.48;;;8.43;;
25922;SDS011;13725;51.170;4.442;2023-10-31T13:17:22;18.08;;;8.35;;
25922;SDS011;13725;51.170;4.442;2023-10-31T13:19:47;16.13;;;8.65;;
25922;SDS011;13725;51.170;4.442;2023-10-31T13:22:13;21.80;;;7.95;;
25922;SDS011;13725;51.170;4.442;2023-10-31T13:24:39;14.90;;;7.43;;
25922;SDS011;13725;51.170;4.442;2023-10-31T13:27:05;14.15;;;7.13;;
25922;SDS011;13725;51.170;4.442;2023-10-31T13:29:33;13.75;;;7.55;;
25922;SDS011;13725;51.170;4.442;2023-10-31T13:31:58;18.92;;;7.53;;
25922;SDS011;13725;51.170;4.442;2023-10-31T13:34:24;14.68;;;7.25;;
25922;SDS011;13725;51.170;4.442;2023-10-31T13:36:50;14.57;;;7.20;;
25922;SDS011;13725;51.170;4.442;2023-10-31T13:39:16;11.65;;;7.13;;
25922;SDS011;13725;51.170;4.442;2023-10-31T13:41:43;14.02;;;7.20;;
25922;SDS011;13725;51.170;4.442;2023-10-31T13:44:08;13.10;;;7.32;;
25922;SDS011;13725;51.170;4.442;2023-10-31T13:46:34;18.25;;;7.70;;
25922;SDS011;13725;51.170;4.442;2023-10-31T13:49:00;13.40;;;7.20;;
25922;SDS011;13725;51.170;4.442;2023-10-31T13:51:26;13.25;;;6.32;;
25922;SDS011;13725;51.170;4.442;2023-10-31T13:53:51;11.52;;;6.60;;
25922;SDS011;13725;51.170;4.442;2023-10-31T13:56:17;17.92;;;7.18;;
25922;SDS011;13725;51.170;4.442;2023-10-31T13:58:43;11.68;;;6.45;;
25922;SDS011;13725;51.170;4.442;2023-10-31T14:01:08;16.70;;;6.93;;
25922;SDS011;13725;51.170;4.442;2023-10-31T14:03:34;8.60;;;6.10;;
25922;SDS011;13725;51.170;4.442;2023-10-31T14:06:00;13.48;;;7.03;;
25922;SDS011;13725;51.170;4.442;2023-10-31T14:08:26;12.02;;;6.70;;
25922;SDS011;13725;51.170;4.442;2023-10-31T14:10:52;10.27;;;6.18;;
25922;SDS011;13725;51.170;4.442;2023-10-31T14:13:17;13.18;;;6.00;;
25922;SDS011;13725;51.170;4.442;2023-10-31T14:15:45;13.30;;;6.28;;
25922;SDS011;13725;51.170;4.442;2023-10-31T14:18:11;13.40;;;6.38;;
25922;SDS011;13725;51.170;4.442;2023-10-31T14:20:38;13.90;;;6.18;;
25922;SDS011;13725;51.170;4.442;2023-10-31T14:23:05;11.75;;;5.40;;
25922;SDS011;13725;51.170;4.442;2023-10-31T14:25:31;15.02;;;5.97;;
25922;SDS011;13725;51.170;4.442;2023-10-31T14:27:56;9.90;;;4.57;;
25922;SDS011;13725;51.170;4.442;2023-10-31T14:30:22;8.93;;;4.18;;
25922;SDS011;13725;51.170;4.442;2023-10-31T14:32:48;6.45;;;4.00;;
25922;SDS011;13725;51.170;4.442;2023-10-31T14:35:14;5.97;;;4.32;;
25922;SDS011;13725;51.170;4.442;2023-10-31T14:37:40;8.80;;;4.10;;